createdAt,value
2023-01-19T00:02:01.319Z,16.73
2023-01-19T00:12:08.545Z,16.70
2023-01-19T00:22:15.721Z,16.71
2023-01-19T00:32:22.519Z,16.70
2023-01-19T00:42:29.718Z,16.70
2023-01-19T00:52:36.618Z,16.68
2023-01-19T01:02:44.011Z,16.68
2023-01-19T01:12:55.169Z,16.69
2023-01-19T01:23:04.025Z,16.70
2023-01-19T01:33:11.500Z,16.70
2023-01-19T01:43:18.842Z,16.66
2023-01-19T01:53:26.202Z,16.69
2023-01-19T02:03:33.933Z,16.69
2023-01-19T02:13:40.625Z,16.66
2023-01-19T02:23:47.993Z,16.66
2023-01-19T02:33:54.894Z,16.69
2023-01-19T02:44:02.124Z,16.66
2023-01-19T02:54:08.975Z,16.66
2023-01-19T03:04:15.936Z,16.64
2023-01-19T03:14:23.483Z,16.64
2023-01-19T03:24:30.513Z,16.64
2023-01-19T03:34:37.361Z,16.64
2023-01-19T03:44:44.239Z,16.64
2023-01-19T03:54:51.859Z,16.59
2023-01-19T04:04:58.557Z,16.59
2023-01-19T04:15:05.599Z,16.63
2023-01-19T04:25:12.606Z,16.62
2023-01-19T04:35:19.541Z,16.61
2023-01-19T04:45:25.854Z,16.57
2023-01-19T04:55:32.463Z,16.59
2023-01-19T05:05:39.852Z,16.59
2023-01-19T05:15:46.944Z,16.56
2023-01-19T05:25:53.970Z,16.56
2023-01-19T05:36:01.660Z,16.59
2023-01-19T05:46:08.014Z,16.59
2023-01-19T05:56:14.663Z,16.54
2023-01-19T06:06:20.967Z,16.55
2023-01-19T06:16:28.556Z,16.55
2023-01-19T06:26:35.739Z,16.55
2023-01-19T06:36:42.354Z,16.50
2023-01-19T06:46:49.768Z,16.49
2023-01-19T06:56:56.876Z,16.47
2023-01-19T07:07:04.778Z,16.43
2023-01-19T07:17:11.265Z,16.45
2023-01-19T07:27:18.125Z,16.43
2023-01-19T07:37:25.615Z,16.43
2023-01-19T07:47:32.293Z,16.43
2023-01-19T07:57:39.372Z,16.47
2023-01-19T08:07:46.643Z,16.43
2023-01-19T08:17:53.741Z,16.48
2023-01-19T08:28:00.452Z,16.48
2023-01-19T08:38:07.986Z,16.04
2023-01-19T08:48:13.943Z,16.04
2023-01-19T08:58:20.645Z,14.80
2023-01-19T09:08:27.575Z,15.22
2023-01-19T09:18:34.648Z,15.83
2023-01-19T09:28:41.786Z,16.11
2023-01-19T09:38:50.198Z,16.63
2023-01-19T09:48:57.219Z,17.48
2023-01-19T09:59:04.889Z,18.34
2023-01-19T10:09:12.101Z,18.34
2023-01-19T10:19:18.975Z,18.15
2023-01-19T10:29:26.232Z,17.66
2023-01-19T10:39:37.907Z,17.40
2023-01-19T10:49:45.559Z,17.27
2023-01-19T10:59:52.177Z,17.27
2023-01-19T11:09:59.187Z,17.19
2023-01-19T11:20:06.234Z,17.02
2023-01-19T11:30:13.113Z,17.02
2023-01-19T11:40:20.276Z,16.95
2023-01-19T11:50:27.281Z,16.95
2023-01-19T12:00:33.566Z,16.98
2023-01-19T12:10:40.452Z,17.02
2023-01-19T12:20:47.255Z,17.00
2023-01-19T12:30:54.848Z,17.06
2023-01-19T12:41:01.371Z,17.12
2023-01-19T12:51:08.775Z,16.90
2023-01-19T13:01:15.488Z,16.86
2023-01-19T13:11:24.315Z,16.98
2023-01-19T13:21:33.768Z,17.06
2023-01-19T13:31:41.083Z,17.18
2023-01-19T13:41:47.991Z,17.19
2023-01-19T13:51:54.877Z,17.19
2023-01-19T14:02:02.360Z,17.13
2023-01-19T14:12:10.064Z,17.02
2023-01-19T14:22:16.977Z,17.02
2023-01-19T14:32:24.239Z,16.93
2023-01-19T14:42:31.112Z,16.93
2023-01-19T14:52:37.751Z,16.85
2023-01-19T15:02:43.869Z,16.64
2023-01-19T15:12:51.497Z,16.41
2023-01-19T15:22:58.081Z,16.41
2023-01-19T15:33:06.581Z,16.59
2023-01-19T15:43:13.443Z,16.59
2023-01-19T15:53:20.937Z,16.69
2023-01-19T16:03:28.838Z,16.69
2023-01-19T16:13:36.202Z,16.70
2023-01-19T16:23:42.612Z,16.71
2023-01-19T16:33:49.907Z,16.75
2023-01-19T16:43:56.735Z,16.75
2023-01-19T16:54:03.346Z,16.75
2023-01-19T17:04:10.605Z,16.76
2023-01-19T17:14:17.995Z,16.75
2023-01-19T17:24:24.702Z,16.75
2023-01-19T17:34:31.912Z,16.75
2023-01-19T17:44:38.981Z,16.75
2023-01-19T17:54:45.854Z,16.77
2023-01-19T18:04:53.176Z,16.75
2023-01-19T18:15:00.243Z,16.78
2023-01-19T18:25:07.299Z,16.75
2023-01-19T18:35:14.441Z,16.68
2023-01-19T18:45:21.228Z,16.68
2023-01-19T18:55:28.297Z,16.69
2023-01-19T19:05:35.027Z,16.66
2023-01-19T19:15:42.212Z,16.66
2023-01-19T19:25:49.391Z,16.62
2023-01-19T19:35:56.215Z,16.62
2023-01-19T19:46:03.804Z,16.62
2023-01-19T19:56:11.175Z,16.64
2023-01-19T20:06:18.612Z,16.64
2023-01-19T20:16:25.823Z,16.64
2023-01-19T20:26:32.526Z,16.66
2023-01-19T20:36:39.881Z,16.66
2023-01-19T20:46:46.719Z,16.66
2023-01-19T20:56:53.577Z,16.66
2023-01-19T21:07:00.651Z,16.66
2023-01-19T21:17:08.027Z,16.63
2023-01-19T21:27:15.131Z,16.62
2023-01-19T21:37:21.922Z,16.66
2023-01-19T21:47:27.861Z,16.66
2023-01-19T21:57:35.259Z,16.63
2023-01-19T22:07:41.863Z,16.63
2023-01-19T22:17:49.139Z,16.63
2023-01-19T22:27:55.904Z,16.64
2023-01-19T22:38:02.504Z,16.64
2023-01-19T22:48:09.310Z,16.63
2023-01-19T22:58:16.706Z,16.62
2023-01-19T23:08:23.549Z,16.62
2023-01-19T23:18:30.626Z,16.63
2023-01-19T23:28:37.494Z,16.62
2023-01-19T23:38:44.631Z,16.62
2023-01-19T23:48:51.434Z,16.62
2023-01-19T23:58:58.288Z,16.61
